sensor_id;sensor_type;location;lat;lon;timestamp;temperature;humidity
1015;DHT22;8170;48.118;11.628;2023-02-04T00:00:33;4.80;99.90
1015;DHT22;8170;48.118;11.628;2023-02-04T00:01:38;4.80;99.90
1015;DHT22;8170;48.118;11.628;2023-02-04T00:02:41;4.80;99.90
1015;DHT22;8170;48.118;11.628;2023-02-04T00:03:44;4.70;99.90
1015;DHT22;8170;48.118;11.628;2023-02-04T00:04:47;4.80;99.90
1015;DHT22;8170;48.118;11.628;2023-02-04T00:05:49;4.80;99.90
1015;DHT22;8170;48.118;11.628;2023-02-04T00:06:53;4.80;99.90
1015;DHT22;8170;48.118;11.628;2023-02-04T00:07:55;4.80;99.90
1015;DHT22;8170;48.118;11.628;2023-02-04T00:08:58;4.80;99.90
1015;DHT22;8170;48.118;11.628;2023-02-04T00:10:01;4.70;99.90
1015;DHT22;8170;48.118;11.628;2023-02-04T00:11:04;4.70;99.90
1015;DHT22;8170;48.118;11.628;2023-02-04T00:12:08;4.70;99.90
1015;DHT22;8170;48.118;11.628;2023-02-04T00:13:11;4.70;99.90
1015;DHT22;8170;48.118;11.628;2023-02-04T00:14:15;4.80;99.90
1015;DHT22;8170;48.118;11.628;2023-02-04T00:15:17;4.80;99.90
1015;DHT22;8170;48.118;11.628;2023-02-04T00:16:20;4.80;99.90
1015;DHT22;8170;48.118;11.628;2023-02-04T00:17:22;4.80;99.90
1015;DHT22;8170;48.118;11.628;2023-02-04T00:18:25;4.70;99.90
1015;DHT22;8170;48.118;11.628;2023-02-04T00:19:28;4.70;99.90
1015;DHT22;8170;48.118;11.628;2023-02-04T00:20:31;4.70;99.90
1015;DHT22;8170;48.118;11.628;2023-02-04T00:21:33;4.70;99.90
1015;DHT22;8170;48.118;11.628;2023-02-04T00:22:36;4.70;99.90
1015;DHT22;8170;48.118;11.628;2023-02-04T00:23:38;4.80;99.90
1015;DHT22;8170;48.118;11.628;2023-02-04T00:24:42;4.70;99.90
1015;DHT22;8170;48.118;11.628;2023-02-04T00:25:49;4.70;99.90
1015;DHT22;8170;48.118;11.628;2023-02-04T00:26:52;4.70;99.90
1015;DHT22;8170;48.118;11.628;2023-02-04T00:27:55;4.70;99.90
1015;DHT22;8170;48.118;11.628;2023-02-04T00:28:59;4.70;99.90
1015;DHT22;8170;48.118;11.628;2023-02-04T00:30:01;4.70;99.90
1015;DHT22;8170;48.118;11.628;2023-02-04T00:31:04;4.80;99.90
1015;DHT22;8170;48.118;11.628;2023-02-04T00:32:07;4.80;99.90
1015;DHT22;8170;48.118;11.628;2023-02-04T00:33:10;4.80;99.90
1015;DHT22;8170;48.118;11.628;2023-02-04T00:34:12;4.80;99.90
1015;DHT22;8170;48.118;11.628;2023-02-04T00:35:15;4.80;99.90
1015;DHT22;8170;48.118;11.628;2023-02-04T00:36:17;4.80;99.90
1015;DHT22;8170;48.118;11.628;2023-02-04T00:37:20;4.70;99.90
1015;DHT22;8170;48.118;11.628;2023-02-04T00:38:22;4.70;99.90
1015;DHT22;8170;48.118;11.628;2023-02-04T00:39:26;4.70;99.90
1015;DHT22;8170;48.118;11.628;2023-02-04T00:40:28;4.70;99.90
1015;DHT22;8170;48.118;11.628;2023-02-04T00:41:31;4.70;99.90
1015;DHT22;8170;48.118;11.628;2023-02-04T00:42:33;4.70;99.90
1015;DHT22;8170;48.118;11.628;2023-02-04T00:43:38;4.70;99.90
1015;DHT22;8170;48.118;11.628;2023-02-04T00:44:40;4.80;99.90
1015;DHT22;8170;48.118;11.628;2023-02-04T00:45:43;4.70;99.90
1015;DHT22;8170;48.118;11.628;2023-02-04T00:46:46;4.70;99.90
1015;DHT22;8170;48.118;11.628;2023-02-04T00:47:50;4.70;99.90
1015;DHT22;8170;48.118;11.628;2023-02-04T00:48:52;4.70;99.90
1015;DHT22;8170;48.118;11.628;2023-02-04T00:49:56;4.70;99.90
1015;DHT22;8170;48.118;11.628;2023-02-04T00:50:58;4.70;99.90
1015;DHT22;8170;48.118;11.628;2023-02-04T00:52:01;4.70;99.90
1015;DHT22;8170;48.118;11.628;2023-02-04T00:53:03;4.70;99.90
1015;DHT22;8170;48.118;11.628;2023-02-04T00:54:06;4.70;99.90
1015;DHT22;8170;48.118;11.628;2023-02-04T00:55:08;4.70;99.90
1015;DHT22;8170;48.118;11.628;2023-02-04T00:56:13;4.70;99.90
1015;DHT22;8170;48.118;11.628;2023-02-04T00:57:15;4.70;99.90
1015;DHT22;8170;48.118;11.628;2023-02-04T00:58:18;4.70;99.90
1015;DHT22;8170;48.118;11.628;2023-02-04T00:59:21;4.70;99.90
1015;DHT22;8170;48.118;11.628;2023-02-04T01:00:24;4.70;99.90
1015;DHT22;8170;48.118;11.628;2023-02-04T01:01:26;4.70;99.90
1015;DHT22;8170;48.118;11.628;2023-02-04T01:02:30;4.70;99.90
1015;DHT22;8170;48.118;11.628;2023-02-04T01:03:32;4.70;99.90
1015;DHT22;8170;48.118;11.628;2023-02-04T01:04:35;4.60;99.90
1015;DHT22;8170;48.118;11.628;2023-02-04T01:05:37;4.60;99.90
1015;DHT22;8170;48.118;11.628;2023-02-04T01:06:41;4.70;99.90
1015;DHT22;8170;48.118;11.628;2023-02-04T01:07:43;4.70;99.90
1015;DHT22;8170;48.118;11.628;2023-02-04T01:08:47;4.70;99.90
1015;DHT22;8170;48.118;11.628;2023-02-04T01:09:50;4.70;99.90
1015;DHT22;8170;48.118;11.628;2023-02-04T01:10:53;4.70;99.90
1015;DHT22;8170;48.118;11.628;2023-02-04T01:11:55;4.60;99.90
1015;DHT22;8170;48.118;11.628;2023-02-04T01:12:58;4.60;99.90
1015;DHT22;8170;48.118;11.628;2023-02-04T01:14:01;4.70;99.90
1015;DHT22;8170;48.118;11.628;2023-02-04T01:15:06;4.60;99.90
1015;DHT22;8170;48.118;11.628;2023-02-04T01:16:09;4.60;99.90
1015;DHT22;8170;48.118;11.628;2023-02-04T01:17:12;4.60;99.90
1015;DHT22;8170;48.118;11.628;2023-02-04T01:18:14;4.60;99.90
1015;DHT22;8170;48.118;11.628;2023-02-04T01:19:17;4.60;99.90
1015;DHT22;8170;48.118;11.628;2023-02-04T01:20:19;4.50;99.90
1015;DHT22;8170;48.118;11.628;2023-02-04T01:21:23;4.50;99.90
1015;DHT22;8170;48.118;11.628;2023-02-04T01:22:25;4.50;99.90
1015;DHT22;8170;48.118;11.628;2023-02-04T01:23:29;4.60;99.90
1015;DHT22;8170;48.118;11.628;2023-02-04T01:24:31;4.60;99.90
1015;DHT22;8170;48.118;11.628;2023-02-04T01:25:53;4.60;99.90
1015;DHT22;8170;48.118;11.628;2023-02-04T01:26:55;4.60;99.90
1015;DHT22;8170;48.118;11.628;2023-02-04T01:27:58;4.50;99.90
1015;DHT22;8170;48.118;11.628;2023-02-04T01:29:01;4.60;99.90
1015;DHT22;8170;48.118;11.628;2023-02-04T01:30:06;4.50;99.90
1015;DHT22;8170;48.118;11.628;2023-02-04T01:31:09;4.60;99.90
1015;DHT22;8170;48.118;11.628;2023-02-04T01:32:12;4.60;99.90
1015;DHT22;8170;48.118;11.628;2023-02-04T01:33:14;4.60;99.90
1015;DHT22;8170;48.118;11.628;2023-02-04T01:34:18;4.60;99.90
1015;DHT22;8170;48.118;11.628;2023-02-04T01:35:20;4.60;99.90
1015;DHT22;8170;48.118;11.628;2023-02-04T01:36:23;4.70;99.90
1015;DHT22;8170;48.118;11.628;2023-02-04T01:37:25;4.70;99.90
1015;DHT22;8170;48.118;11.628;2023-02-04T01:38:29;4.70;99.90
1015;DHT22;8170;48.118;11.628;2023-02-04T01:39:31;4.70;99.90
1015;DHT22;8170;48.118;11.628;2023-02-04T01:40:34;4.70;99.90
1015;DHT22;8170;48.118;11.628;2023-02-04T01:41:37;4.70;99.90
1015;DHT22;8170;48.118;11.628;2023-02-04T01:42:40;4.70;99.90
1015;DHT22;8170;48.118;11.628;2023-02-04T01:43:42;4.70;99.90
1015;DHT22;8170;48.118;11.628;2023-02-04T01:44:46;4.70;99.90
1015;DHT22;8170;48.118;11.628;2023-02-04T01:45:50;4.70;99.90
1015;DHT22;8170;48.118;11.628;2023-02-04T01:46:54;4.70;99.90
1015;DHT22;8170;48.118;11.628;2023-02-04T01:47:56;4.70;99.90
1015;DHT22;8170;48.118;11.628;2023-02-04T01:49:00;4.70;99.90
1015;DHT22;8170;48.118;11.628;2023-02-04T01:50:03;4.80;99.90
1015;DHT22;8170;48.118;11.628;2023-02-04T01:51:09;4.80;99.90
1015;DHT22;8170;48.118;11.628;2023-02-04T01:52:12;4.80;99.90
1015;DHT22;8170;48.118;11.628;2023-02-04T01:53:18;4.80;99.90
1015;DHT22;8170;48.118;11.628;2023-02-04T01:54:21;4.80;99.90
1015;DHT22;8170;48.118;11.628;2023-02-04T01:55:27;4.80;99.90
1015;DHT22;8170;48.118;11.628;2023-02-04T01:56:29;4.80;99.90
1015;DHT22;8170;48.118;11.628;2023-02-04T01:57:33;4.90;99.90
1015;DHT22;8170;48.118;11.628;2023-02-04T01:58:37;4.90;99.90
1015;DHT22;8170;48.118;11.628;2023-02-04T01:59:42;4.90;99.90
1015;DHT22;8170;48.118;11.628;2023-02-04T02:00:44;4.90;99.90
1015;DHT22;8170;48.118;11.628;2023-02-04T02:01:50;4.90;99.90
1015;DHT22;8170;48.118;11.628;2023-02-04T02:02:53;4.90;99.90
1015;DHT22;8170;48.118;11.628;2023-02-04T02:03:57;4.90;99.90
1015;DHT22;8170;48.118;11.628;2023-02-04T02:05:00;5.00;99.90
1015;DHT22;8170;48.118;11.628;2023-02-04T02:06:03;5.00;99.90
1015;DHT22;8170;48.118;11.628;2023-02-04T02:07:06;5.00;99.90
1015;DHT22;8170;48.118;11.628;2023-02-04T02:08:12;5.00;99.90
1015;DHT22;8170;48.118;11.628;2023-02-04T02:09:15;5.00;99.90
1015;DHT22;8170;48.118;11.628;2023-02-04T02:10:19;5.00;99.90
1015;DHT22;8170;48.118;11.628;2023-02-04T02:11:21;5.00;99.90
1015;DHT22;8170;48.118;11.628;2023-02-04T02:12:24;5.00;99.90
1015;DHT22;8170;48.118;11.628;2023-02-04T02:13:26;5.00;99.90
1015;DHT22;8170;48.118;11.628;2023-02-04T02:14:30;4.90;99.90
1015;DHT22;8170;48.118;11.628;2023-02-04T02:15:32;5.00;99.90
1015;DHT22;8170;48.118;11.628;2023-02-04T02:16:35;5.00;99.90
1015;DHT22;8170;48.118;11.628;2023-02-04T02:17:39;5.00;99.90
1015;DHT22;8170;48.118;11.628;2023-02-04T02:18:43;5.00;99.90
1015;DHT22;8170;48.118;11.628;2023-02-04T02:19:45;5.00;99.90
1015;DHT22;8170;48.118;11.628;2023-02-04T02:20:48;5.00;99.90
1015;DHT22;8170;48.118;11.628;2023-02-04T02:21:57;5.00;99.90
1015;DHT22;8170;48.118;11.628;2023-02-04T02:23:05;5.00;99.90
1015;DHT22;8170;48.118;11.628;2023-02-04T02:24:24;5.00;99.90
1015;DHT22;8170;48.118;11.628;2023-02-04T02:25:27;5.00;99.90
1015;DHT22;8170;48.118;11.628;2023-02-04T02:26:30;5.00;99.90
1015;DHT22;8170;48.118;11.628;2023-02-04T02:27:33;5.00;99.90
1015;DHT22;8170;48.118;11.628;2023-02-04T02:28:36;5.00;99.90
1015;DHT22;8170;48.118;11.628;2023-02-04T02:29:40;5.00;99.90
1015;DHT22;8170;48.118;11.628;2023-02-04T02:30:44;4.90;99.90
1015;DHT22;8170;48.118;11.628;2023-02-04T02:31:49;5.00;99.90
1015;DHT22;8170;48.118;11.628;2023-02-04T02:32:53;5.00;99.90
1015;DHT22;8170;48.118;11.628;2023-02-04T02:33:55;5.00;99.90
1015;DHT22;8170;48.118;11.628;2023-02-04T02:34:58;5.00;99.90
1015;DHT22;8170;48.118;11.628;2023-02-04T02:36:02;4.90;99.90
1015;DHT22;8170;48.118;11.628;2023-02-04T02:37:06;5.00;99.90
1015;DHT22;8170;48.118;11.628;2023-02-04T02:38:10;5.00;99.90
1015;DHT22;8170;48.118;11.628;2023-02-04T02:39:15;5.00;99.90
1015;DHT22;8170;48.118;11.628;2023-02-04T02:40:19;5.00;99.90
1015;DHT22;8170;48.118;11.628;2023-02-04T02:41:22;5.00;99.90
1015;DHT22;8170;48.118;11.628;2023-02-04T02:42:24;5.00;99.90
1015;DHT22;8170;48.118;11.628;2023-02-04T02:43:28;5.00;99.90
1015;DHT22;8170;48.118;11.628;2023-02-04T02:44:32;5.00;99.90
1015;DHT22;8170;48.118;11.628;2023-02-04T02:45:35;5.00;99.90
1015;DHT22;8170;48.118;11.628;2023-02-04T02:46:37;5.00;99.90
1015;DHT22;8170;48.118;11.628;2023-02-04T02:47:41;5.00;99.90
1015;DHT22;8170;48.118;11.628;2023-02-04T02:48:43;5.00;99.90
1015;DHT22;8170;48.118;11.628;2023-02-04T02:49:47;5.00;99.90
1015;DHT22;8170;48.118;11.628;2023-02-04T02:50:50;5.00;99.90
1015;DHT22;8170;48.118;11.628;2023-02-04T02:51:55;5.00;99.90
1015;DHT22;8170;48.118;11.628;2023-02-04T02:52:57;4.90;99.90
1015;DHT22;8170;48.118;11.628;2023-02-04T02:54:00;4.90;99.90
1015;DHT22;8170;48.118;11.628;2023-02-04T02:55:03;4.90;99.90
1015;DHT22;8170;48.118;11.628;2023-02-04T02:56:08;4.90;99.90
1015;DHT22;8170;48.118;11.628;2023-02-04T02:57:12;4.90;99.90
1015;DHT22;8170;48.118;11.628;2023-02-04T02:58:20;4.80;99.90
1015;DHT22;8170;48.118;11.628;2023-02-04T02:59:23;4.80;99.90
1015;DHT22;8170;48.118;11.628;2023-02-04T03:00:28;4.80;99.90
1015;DHT22;8170;48.118;11.628;2023-02-04T03:01:32;4.80;99.90
1015;DHT22;8170;48.118;11.628;2023-02-04T03:02:36;4.80;99.90
1015;DHT22;8170;48.118;11.628;2023-02-04T03:03:42;4.80;99.90
1015;DHT22;8170;48.118;11.628;2023-02-04T03:04:49;4.80;99.90
1015;DHT22;8170;48.118;11.628;2023-02-04T03:05:58;4.80;99.90
1015;DHT22;8170;48.118;11.628;2023-02-04T03:07:03;4.70;99.90
1015;DHT22;8170;48.118;11.628;2023-02-04T03:08:05;4.70;99.90
1015;DHT22;8170;48.118;11.628;2023-02-04T03:09:10;4.70;99.90
1015;DHT22;8170;48.118;11.628;2023-02-04T03:10:13;4.70;99.90
1015;DHT22;8170;48.118;11.628;2023-02-04T03:11:18;4.70;99.90
1015;DHT22;8170;48.118;11.628;2023-02-04T03:12:21;4.70;99.90
1015;DHT22;8170;48.118;11.628;2023-02-04T03:13:28;4.70;99.90
1015;DHT22;8170;48.118;11.628;2023-02-04T03:14:31;4.70;99.90
1015;DHT22;8170;48.118;11.628;2023-02-04T03:15:34;4.70;99.90
1015;DHT22;8170;48.118;11.628;2023-02-04T03:16:37;4.70;99.90
1015;DHT22;8170;48.118;11.628;2023-02-04T03:17:42;4.70;99.90
1015;DHT22;8170;48.118;11.628;2023-02-04T03:18:46;4.70;99.90
1015;DHT22;8170;48.118;11.628;2023-02-04T03:19:49;4.70;99.90
1015;DHT22;8170;48.118;11.628;2023-02-04T03:20:52;4.70;99.90
1015;DHT22;8170;48.118;11.628;2023-02-04T03:21:55;4.70;99.90
1015;DHT22;8170;48.118;11.628;2023-02-04T03:22:59;4.70;99.90
1015;DHT22;8170;48.118;11.628;2023-02-04T03:24:02;4.70;99.90
1015;DHT22;8170;48.118;11.628;2023-02-04T03:25:05;4.70;99.90
1015;DHT22;8170;48.118;11.628;2023-02-04T03:26:09;4.70;99.90
1015;DHT22;8170;48.118;11.628;2023-02-04T03:27:13;4.70;99.90
1015;DHT22;8170;48.118;11.628;2023-02-04T03:28:16;4.60;99.90
1015;DHT22;8170;48.118;11.628;2023-02-04T03:29:19;4.70;99.90
1015;DHT22;8170;48.118;11.628;2023-02-04T03:30:22;4.70;99.90
1015;DHT22;8170;48.118;11.628;2023-02-04T03:31:25;4.60;99.90
1015;DHT22;8170;48.118;11.628;2023-02-04T03:32:28;4.70;99.90
1015;DHT22;8170;48.118;11.628;2023-02-04T03:33:30;4.70;99.90
1015;DHT22;8170;48.118;11.628;2023-02-04T03:34:34;4.60;99.90
1015;DHT22;8170;48.118;11.628;2023-02-04T03:35:36;4.70;99.90
1015;DHT22;8170;48.118;11.628;2023-02-04T03:36:40;4.60;99.90
1015;DHT22;8170;48.118;11.628;2023-02-04T03:37:42;4.60;99.90
1015;DHT22;8170;48.118;11.628;2023-02-04T03:38:45;4.70;99.90
1015;DHT22;8170;48.118;11.628;2023-02-04T03:39:47;4.70;99.90
1015;DHT22;8170;48.118;11.628;2023-02-04T03:40:51;4.60;99.90
1015;DHT22;8170;48.118;11.628;2023-02-04T03:41:53;4.60;99.90
1015;DHT22;8170;48.118;11.628;2023-02-04T03:42:57;4.70;99.90
1015;DHT22;8170;48.118;11.628;2023-02-04T03:44:00;4.70;99.90
1015;DHT22;8170;48.118;11.628;2023-02-04T03:45:03;4.70;99.90
1015;DHT22;8170;48.118;11.628;2023-02-04T03:46:05;4.70;99.90
1015;DHT22;8170;48.118;11.628;2023-02-04T03:47:08;4.70;99.90
1015;DHT22;8170;48.118;11.628;2023-02-04T03:48:11;4.70;99.90
1015;DHT22;8170;48.118;11.628;2023-02-04T03:49:14;4.70;99.90
1015;DHT22;8170;48.118;11.628;2023-02-04T03:50:16;4.70;99.90
1015;DHT22;8170;48.118;11.628;2023-02-04T03:51:19;4.70;99.90
1015;DHT22;8170;48.118;11.628;2023-02-04T03:52:21;4.80;99.90
1015;DHT22;8170;48.118;11.628;2023-02-04T03:53:24;4.80;99.90
1015;DHT22;8170;48.118;11.628;2023-02-04T03:54:27;4.80;99.90
1015;DHT22;8170;48.118;11.628;2023-02-04T03:55:30;4.80;99.90
1015;DHT22;8170;48.118;11.628;2023-02-04T03:56:33;4.80;99.90
1015;DHT22;8170;48.118;11.628;2023-02-04T03:57:35;4.80;99.90
1015;DHT22;8170;48.118;11.628;2023-02-04T03:58:40;4.80;99.90
1015;DHT22;8170;48.118;11.628;2023-02-04T03:59:42;4.80;99.90
1015;DHT22;8170;48.118;11.628;2023-02-04T04:00:45;4.80;99.90
1015;DHT22;8170;48.118;11.628;2023-02-04T04:01:47;4.80;99.90
1015;DHT22;8170;48.118;11.628;2023-02-04T04:02:51;4.80;99.90
1015;DHT22;8170;48.118;11.628;2023-02-04T04:03:53;4.80;99.90
1015;DHT22;8170;48.118;11.628;2023-02-04T04:04:56;4.80;99.90
1015;DHT22;8170;48.118;11.628;2023-02-04T04:05:58;4.80;99.90
1015;DHT22;8170;48.118;11.628;2023-02-04T04:07:02;4.80;99.90
1015;DHT22;8170;48.118;11.628;2023-02-04T04:08:04;4.70;99.90
1015;DHT22;8170;48.118;11.628;2023-02-04T04:09:07;4.70;99.90
1015;DHT22;8170;48.118;11.628;2023-02-04T04:10:10;4.70;99.90
1015;DHT22;8170;48.118;11.628;2023-02-04T04:11:13;4.80;99.90
1015;DHT22;8170;48.118;11.628;2023-02-04T04:12:15;4.80;99.90
1015;DHT22;8170;48.118;11.628;2023-02-04T04:13:18;4.70;99.90
1015;DHT22;8170;48.118;11.628;2023-02-04T04:14:22;4.70;99.90
1015;DHT22;8170;48.118;11.628;2023-02-04T04:15:25;4.70;99.90
1015;DHT22;8170;48.118;11.628;2023-02-04T04:16:27;4.70;99.90
1015;DHT22;8170;48.118;11.628;2023-02-04T04:17:30;4.70;99.90
1015;DHT22;8170;48.118;11.628;2023-02-04T04:18:33;4.70;99.90
1015;DHT22;8170;48.118;11.628;2023-02-04T04:19:36;4.70;99.90
1015;DHT22;8170;48.118;11.628;2023-02-04T04:20:38;4.60;99.90
1015;DHT22;8170;48.118;11.628;2023-02-04T04:21:41;4.60;99.90
1015;DHT22;8170;48.118;11.628;2023-02-04T04:22:43;4.60;99.90
1015;DHT22;8170;48.118;11.628;2023-02-04T04:23:47;4.60;99.90
1015;DHT22;8170;48.118;11.628;2023-02-04T04:24:49;4.60;99.90
1015;DHT22;8170;48.118;11.628;2023-02-04T04:25:52;4.50;99.90
1015;DHT22;8170;48.118;11.628;2023-02-04T04:26:54;4.60;99.90
1015;DHT22;8170;48.118;11.628;2023-02-04T04:27:58;4.50;99.90
1015;DHT22;8170;48.118;11.628;2023-02-04T04:29:00;4.50;99.90
1015;DHT22;8170;48.118;11.628;2023-02-04T04:30:04;4.50;99.90
1015;DHT22;8170;48.118;11.628;2023-02-04T04:31:07;4.50;99.90
1015;DHT22;8170;48.118;11.628;2023-02-04T04:32:10;4.40;99.90
1015;DHT22;8170;48.118;11.628;2023-02-04T04:33:12;4.40;99.90
1015;DHT22;8170;48.118;11.628;2023-02-04T04:34:15;4.40;99.90
1015;DHT22;8170;48.118;11.628;2023-02-04T04:35:18;4.30;99.90
1015;DHT22;8170;48.118;11.628;2023-02-04T04:36:20;4.30;99.90
1015;DHT22;8170;48.118;11.628;2023-02-04T04:37:23;4.30;99.90
1015;DHT22;8170;48.118;11.628;2023-02-04T04:38:26;4.30;99.90
1015;DHT22;8170;48.118;11.628;2023-02-04T04:39:29;4.20;99.90
1015;DHT22;8170;48.118;11.628;2023-02-04T04:40:31;4.20;99.90
1015;DHT22;8170;48.118;11.628;2023-02-04T04:41:34;4.20;99.90
1015;DHT22;8170;48.118;11.628;2023-02-04T04:42:36;4.20;99.90
1015;DHT22;8170;48.118;11.628;2023-02-04T04:43:40;4.20;99.90
1015;DHT22;8170;48.118;11.628;2023-02-04T04:44:42;4.10;99.90
1015;DHT22;8170;48.118;11.628;2023-02-04T04:45:46;4.10;99.90
1015;DHT22;8170;48.118;11.628;2023-02-04T04:46:48;4.10;99.90
1015;DHT22;8170;48.118;11.628;2023-02-04T04:47:52;4.10;99.90
1015;DHT22;8170;48.118;11.628;2023-02-04T04:48:54;4.10;99.90
1015;DHT22;8170;48.118;11.628;2023-02-04T04:49:57;4.00;99.90
1015;DHT22;8170;48.118;11.628;2023-02-04T04:50:59;4.00;99.90
1015;DHT22;8170;48.118;11.628;2023-02-04T04:52:03;4.00;99.90
1015;DHT22;8170;48.118;11.628;2023-02-04T04:53:05;4.00;99.90
1015;DHT22;8170;48.118;11.628;2023-02-04T04:54:11;4.00;99.90
1015;DHT22;8170;48.118;11.628;2023-02-04T04:55:14;4.00;99.90
1015;DHT22;8170;48.118;11.628;2023-02-04T04:56:17;4.00;99.90
1015;DHT22;8170;48.118;11.628;2023-02-04T04:57:20;3.90;99.90
1015;DHT22;8170;48.118;11.628;2023-02-04T04:58:23;3.90;99.90
1015;DHT22;8170;48.118;11.628;2023-02-04T04:59:25;3.90;99.90
1015;DHT22;8170;48.118;11.628;2023-02-04T05:00:28;3.90;99.90
1015;DHT22;8170;48.118;11.628;2023-02-04T05:01:32;3.90;99.90
1015;DHT22;8170;48.118;11.628;2023-02-04T05:02:36;3.90;99.90
1015;DHT22;8170;48.118;11.628;2023-02-04T05:03:38;3.90;99.90
1015;DHT22;8170;48.118;11.628;2023-02-04T05:04:41;3.90;99.90
1015;DHT22;8170;48.118;11.628;2023-02-04T05:05:43;3.80;99.90
1015;DHT22;8170;48.118;11.628;2023-02-04T05:06:46;3.80;99.90
1015;DHT22;8170;48.118;11.628;2023-02-04T05:07:48;3.80;99.90
1015;DHT22;8170;48.118;11.628;2023-02-04T05:08:52;3.80;99.90
1015;DHT22;8170;48.118;11.628;2023-02-04T05:09:54;3.80;99.90
1015;DHT22;8170;48.118;11.628;2023-02-04T05:10:57;3.80;99.90
1015;DHT22;8170;48.118;11.628;2023-02-04T05:11:59;3.70;99.90
1015;DHT22;8170;48.118;11.628;2023-02-04T05:13:03;3.70;99.90
1015;DHT22;8170;48.118;11.628;2023-02-04T05:14:05;3.70;99.90
1015;DHT22;8170;48.118;11.628;2023-02-04T05:15:08;3.70;99.90
1015;DHT22;8170;48.118;11.628;2023-02-04T05:16:11;3.70;99.90
1015;DHT22;8170;48.118;11.628;2023-02-04T05:17:15;3.70;99.90
1015;DHT22;8170;48.118;11.628;2023-02-04T05:18:17;3.70;99.90
1015;DHT22;8170;48.118;11.628;2023-02-04T05:19:20;3.70;99.90
1015;DHT22;8170;48.118;11.628;2023-02-04T05:20:23;3.70;99.90
1015;DHT22;8170;48.118;11.628;2023-02-04T05:21:26;3.70;99.90
1015;DHT22;8170;48.118;11.628;2023-02-04T05:22:28;3.60;99.90
1015;DHT22;8170;48.118;11.628;2023-02-04T05:23:31;3.60;99.90
1015;DHT22;8170;48.118;11.628;2023-02-04T05:24:33;3.60;99.90
1015;DHT22;8170;48.118;11.628;2023-02-04T05:25:36;3.60;99.90
1015;DHT22;8170;48.118;11.628;2023-02-04T05:26:38;3.60;99.90
1015;DHT22;8170;48.118;11.628;2023-02-04T05:27:41;3.60;99.90
1015;DHT22;8170;48.118;11.628;2023-02-04T05:28:44;3.60;99.90
1015;DHT22;8170;48.118;11.628;2023-02-04T05:29:47;3.60;99.90
1015;DHT22;8170;48.118;11.628;2023-02-04T05:30:49;3.60;99.90
1015;DHT22;8170;48.118;11.628;2023-02-04T05:31:53;3.70;99.90
1015;DHT22;8170;48.118;11.628;2023-02-04T05:32:56;3.70;99.90
1015;DHT22;8170;48.118;11.628;2023-02-04T05:33:59;3.70;99.90
1015;DHT22;8170;48.118;11.628;2023-02-04T05:35:01;3.70;99.90
1015;DHT22;8170;48.118;11.628;2023-02-04T05:36:06;3.70;99.90
1015;DHT22;8170;48.118;11.628;2023-02-04T05:37:08;3.80;99.90
1015;DHT22;8170;48.118;11.628;2023-02-04T05:38:11;3.80;99.90
1015;DHT22;8170;48.118;11.628;2023-02-04T05:39:13;3.80;99.90
1015;DHT22;8170;48.118;11.628;2023-02-04T05:40:17;3.80;99.90
1015;DHT22;8170;48.118;11.628;2023-02-04T05:41:19;3.80;99.90
1015;DHT22;8170;48.118;11.628;2023-02-04T05:42:22;3.80;99.90
1015;DHT22;8170;48.118;11.628;2023-02-04T05:43:24;3.90;99.90
1015;DHT22;8170;48.118;11.628;2023-02-04T05:44:27;3.90;99.90
1015;DHT22;8170;48.118;11.628;2023-02-04T05:45:30;3.90;99.90
1015;DHT22;8170;48.118;11.628;2023-02-04T05:46:33;3.90;99.90
1015;DHT22;8170;48.118;11.628;2023-02-04T05:47:35;3.90;99.90
1015;DHT22;8170;48.118;11.628;2023-02-04T05:48:39;3.90;99.90
1015;DHT22;8170;48.118;11.628;2023-02-04T05:49:42;3.90;99.90
1015;DHT22;8170;48.118;11.628;2023-02-04T05:50:45;3.90;99.90
1015;DHT22;8170;48.118;11.628;2023-02-04T05:51:47;3.90;99.90
1015;DHT22;8170;48.118;11.628;2023-02-04T05:52:50;3.90;99.90
1015;DHT22;8170;48.118;11.628;2023-02-04T05:53:52;3.90;99.90
1015;DHT22;8170;48.118;11.628;2023-02-04T05:54:55;3.90;99.90
1015;DHT22;8170;48.118;11.628;2023-02-04T05:55:57;3.90;99.90
1015;DHT22;8170;48.118;11.628;2023-02-04T05:57:00;3.90;99.90
1015;DHT22;8170;48.118;11.628;2023-02-04T05:58:02;3.90;99.90
1015;DHT22;8170;48.118;11.628;2023-02-04T05:59:05;3.90;99.90
1015;DHT22;8170;48.118;11.628;2023-02-04T06:00:10;3.90;99.90
1015;DHT22;8170;48.118;11.628;2023-02-04T06:01:13;3.90;99.90
1015;DHT22;8170;48.118;11.628;2023-02-04T06:02:15;4.00;99.90
1015;DHT22;8170;48.118;11.628;2023-02-04T06:03:18;4.00;99.90
1015;DHT22;8170;48.118;11.628;2023-02-04T06:04:23;4.00;99.90
1015;DHT22;8170;48.118;11.628;2023-02-04T06:05:26;4.00;99.90
1015;DHT22;8170;48.118;11.628;2023-02-04T06:06:29;4.00;99.90
1015;DHT22;8170;48.118;11.628;2023-02-04T06:07:32;4.00;99.90
1015;DHT22;8170;48.118;11.628;2023-02-04T06:08:34;4.00;99.90
1015;DHT22;8170;48.118;11.628;2023-02-04T06:09:37;4.00;99.90
1015;DHT22;8170;48.118;11.628;2023-02-04T06:10:39;4.00;99.90
1015;DHT22;8170;48.118;11.628;2023-02-04T06:11:42;4.00;99.90
1015;DHT22;8170;48.118;11.628;2023-02-04T06:12:44;4.00;99.90
1015;DHT22;8170;48.118;11.628;2023-02-04T06:13:47;4.00;99.90
1015;DHT22;8170;48.118;11.628;2023-02-04T06:14:49;4.00;99.90
1015;DHT22;8170;48.118;11.628;2023-02-04T06:15:52;4.00;99.90
1015;DHT22;8170;48.118;11.628;2023-02-04T06:16:54;4.00;99.90
1015;DHT22;8170;48.118;11.628;2023-02-04T06:17:57;4.00;99.90
1015;DHT22;8170;48.118;11.628;2023-02-04T06:19:00;4.00;99.90
1015;DHT22;8170;48.118;11.628;2023-02-04T06:20:05;4.00;99.90
1015;DHT22;8170;48.118;11.628;2023-02-04T06:21:08;4.00;99.90
1015;DHT22;8170;48.118;11.628;2023-02-04T06:22:11;4.10;99.90
1015;DHT22;8170;48.118;11.628;2023-02-04T06:23:13;4.00;99.90
1015;DHT22;8170;48.118;11.628;2023-02-04T06:24:16;4.00;99.90
1015;DHT22;8170;48.118;11.628;2023-02-04T06:25:18;4.00;99.90
1015;DHT22;8170;48.118;11.628;2023-02-04T06:26:21;4.00;99.90
1015;DHT22;8170;48.118;11.628;2023-02-04T06:27:24;4.00;99.90
1015;DHT22;8170;48.118;11.628;2023-02-04T06:28:27;4.00;99.90
1015;DHT22;8170;48.118;11.628;2023-02-04T06:29:29;4.10;99.90
1015;DHT22;8170;48.118;11.628;2023-02-04T06:30:32;4.00;99.90
1015;DHT22;8170;48.118;11.628;2023-02-04T06:31:34;4.10;99.90
1015;DHT22;8170;48.118;11.628;2023-02-04T06:32:40;4.10;99.90
1015;DHT22;8170;48.118;11.628;2023-02-04T06:33:42;4.10;99.90
1015;DHT22;8170;48.118;11.628;2023-02-04T06:34:45;4.10;99.90
1015;DHT22;8170;48.118;11.628;2023-02-04T06:35:49;4.10;99.90
1015;DHT22;8170;48.118;11.628;2023-02-04T06:36:52;4.00;99.90
1015;DHT22;8170;48.118;11.628;2023-02-04T06:37:54;4.00;99.90
1015;DHT22;8170;48.118;11.628;2023-02-04T06:38:57;4.00;99.90
1015;DHT22;8170;48.118;11.628;2023-02-04T06:39:59;4.00;99.90
1015;DHT22;8170;48.118;11.628;2023-02-04T06:41:02;4.00;99.90
1015;DHT22;8170;48.118;11.628;2023-02-04T06:42:05;4.00;99.90
1015;DHT22;8170;48.118;11.628;2023-02-04T06:43:08;4.00;99.90
1015;DHT22;8170;48.118;11.628;2023-02-04T06:44:10;4.00;99.90
1015;DHT22;8170;48.118;11.628;2023-02-04T06:45:13;4.00;99.90
1015;DHT22;8170;48.118;11.628;2023-02-04T06:46:15;4.00;99.90
1015;DHT22;8170;48.118;11.628;2023-02-04T06:47:19;4.00;99.90
1015;DHT22;8170;48.118;11.628;2023-02-04T06:48:22;4.00;99.90
1015;DHT22;8170;48.118;11.628;2023-02-04T06:49:24;4.00;99.90
1015;DHT22;8170;48.118;11.628;2023-02-04T06:50:27;4.00;99.90
1015;DHT22;8170;48.118;11.628;2023-02-04T06:51:33;4.00;99.90
1015;DHT22;8170;48.118;11.628;2023-02-04T06:52:35;4.00;99.90